createdAt,value
2022-07-25T00:00:19.165Z,28.25
2022-07-25T00:02:47.568Z,28.26
2022-07-25T00:05:17.316Z,28.23
2022-07-25T00:07:45.725Z,28.21
2022-07-25T00:10:14.180Z,28.24
2022-07-25T00:12:42.488Z,28.20
2022-07-25T00:15:11.976Z,28.23
2022-07-25T00:17:40.494Z,28.19
2022-07-25T00:20:10.459Z,28.20
2022-07-25T00:22:40.279Z,28.19
2022-07-25T00:25:09.272Z,28.17
2022-07-25T00:27:37.724Z,28.11
2022-07-25T00:30:07.084Z,28.09
2022-07-25T00:32:35.406Z,28.06
2022-07-25T00:35:03.866Z,28.01
2022-07-25T00:37:45.019Z,27.95
2022-07-25T00:40:15.121Z,27.87
2022-07-25T00:42:43.472Z,27.84
2022-07-25T00:45:12.371Z,27.78
2022-07-25T00:47:40.824Z,27.74
2022-07-25T00:50:09.996Z,27.69
2022-07-25T00:52:38.617Z,27.66
2022-07-25T00:55:08.138Z,27.69
2022-07-25T00:57:37.939Z,27.66
2022-07-25T01:00:08.042Z,27.65
2022-07-25T01:02:36.497Z,27.60
2022-07-25T01:05:05.492Z,27.60
2022-07-25T01:07:34.551Z,27.57
2022-07-25T01:10:02.903Z,27.57
2022-07-25T01:12:31.373Z,27.56
2022-07-25T01:15:01.104Z,27.59
2022-07-25T01:17:29.404Z,27.57
2022-07-25T01:19:57.746Z,27.55
2022-07-25T01:22:27.488Z,27.54
2022-07-25T01:24:55.742Z,27.52
2022-07-25T01:27:24.091Z,27.50
2022-07-25T01:29:52.321Z,27.46
2022-07-25T01:32:20.705Z,27.44
2022-07-25T01:34:49.099Z,27.42
2022-07-25T01:37:17.406Z,27.40
2022-07-25T01:39:47.132Z,27.40
2022-07-25T01:42:15.488Z,27.38
2022-07-25T01:44:43.737Z,27.35
2022-07-25T01:47:12.070Z,27.30
2022-07-25T01:49:40.531Z,27.30
2022-07-25T01:52:08.909Z,27.31
2022-07-25T01:54:37.335Z,27.25
2022-07-25T01:57:07.905Z,27.25
2022-07-25T01:59:39.234Z,27.24
2022-07-25T02:02:08.089Z,27.20
2022-07-25T02:04:37.264Z,27.16
2022-07-25T02:07:05.918Z,27.15
2022-07-25T02:09:34.848Z,27.15
2022-07-25T02:12:03.327Z,27.12
2022-07-25T02:14:33.216Z,27.12
2022-07-25T02:17:01.556Z,27.09
2022-07-25T02:19:29.890Z,27.08
2022-07-25T02:21:58.202Z,27.05
2022-07-25T02:24:26.448Z,27.01
2022-07-25T02:26:54.876Z,27.00
2022-07-25T02:29:23.163Z,27.00
2022-07-25T02:31:53.189Z,26.99
2022-07-25T02:34:21.552Z,26.99
2022-07-25T02:36:49.956Z,27.00
2022-07-25T02:39:18.254Z,26.99
2022-07-25T02:41:46.566Z,26.99
2022-07-25T02:44:14.911Z,27.02
2022-07-25T02:46:43.369Z,27.01
2022-07-25T02:49:14.650Z,27.01
2022-07-25T02:51:43.036Z,27.02
2022-07-25T02:54:11.715Z,27.01
2022-07-25T02:56:40.227Z,27.01
2022-07-25T02:59:08.526Z,27.01
2022-07-25T03:01:36.914Z,27.01
2022-07-25T03:04:05.804Z,27.00
2022-07-25T03:06:35.775Z,27.00
2022-07-25T03:09:04.679Z,27.01
2022-07-25T03:11:34.780Z,26.98
2022-07-25T03:14:03.826Z,26.97
2022-07-25T03:16:32.340Z,26.96
2022-07-25T03:19:00.680Z,26.95
2022-07-25T03:21:29.010Z,26.95
2022-07-25T03:23:58.993Z,26.94
2022-07-25T03:26:27.321Z,26.91
2022-07-25T03:28:55.619Z,26.91
2022-07-25T03:31:24.069Z,26.87
2022-07-25T03:33:52.440Z,26.87
2022-07-25T03:36:20.736Z,26.86
2022-07-25T03:38:49.143Z,26.85
2022-07-25T03:41:18.932Z,26.84
2022-07-25T03:43:47.231Z,26.82
2022-07-25T03:46:15.830Z,26.82
2022-07-25T03:48:44.157Z,26.84
2022-07-25T03:51:12.680Z,26.82
2022-07-25T03:53:54.780Z,26.82
2022-07-25T03:56:25.034Z,26.68
2022-07-25T03:58:53.403Z,26.76
2022-07-25T04:01:22.019Z,26.78
2022-07-25T04:03:50.695Z,26.72
2022-07-25T04:06:19.044Z,26.72
2022-07-25T04:08:47.558Z,26.72
2022-07-25T04:11:15.837Z,26.76
2022-07-25T04:13:45.680Z,26.86
2022-07-25T04:16:14.965Z,26.93
2022-07-25T04:18:50.727Z,26.96
2022-07-25T04:21:20.175Z,26.92
2022-07-25T04:23:48.553Z,26.93
2022-07-25T04:26:17.002Z,26.95
2022-07-25T04:28:46.779Z,26.98
2022-07-25T04:31:15.622Z,27.00
2022-07-25T04:33:44.238Z,26.99
2022-07-25T04:36:12.696Z,26.99
2022-07-25T04:38:41.036Z,27.00
2022-07-25T04:41:09.341Z,27.04
2022-07-25T04:43:37.651Z,27.05
2022-07-25T04:46:07.788Z,27.06
2022-07-25T04:48:36.271Z,27.04
2022-07-25T04:51:04.655Z,27.04
2022-07-25T04:53:34.402Z,27.04
2022-07-25T04:56:02.742Z,27.07
2022-07-25T04:58:32.845Z,27.10
2022-07-25T05:01:01.246Z,27.09
2022-07-25T05:03:31.219Z,27.12
2022-07-25T05:05:59.550Z,27.12
2022-07-25T05:08:27.907Z,27.15
2022-07-25T05:10:56.176Z,27.21
2022-07-25T05:13:24.878Z,27.29
2022-07-25T05:15:53.336Z,27.39
2022-07-25T05:18:22.105Z,27.46
2022-07-25T05:20:51.838Z,27.51
2022-07-25T05:23:20.138Z,27.57
2022-07-25T05:25:48.554Z,27.63
2022-07-25T05:28:16.870Z,27.69
2022-07-25T05:30:45.245Z,27.73
2022-07-25T05:33:13.635Z,27.83
2022-07-25T05:35:42.177Z,27.90
2022-07-25T05:38:11.919Z,28.01
2022-07-25T05:40:40.268Z,28.01
2022-07-25T05:43:08.852Z,28.10
2022-07-25T05:45:37.163Z,28.18
2022-07-25T05:48:05.859Z,28.26
2022-07-25T05:50:34.153Z,28.35
2022-07-25T05:53:02.488Z,28.45
2022-07-25T05:55:32.528Z,28.54
2022-07-25T05:58:02.373Z,28.61
2022-07-25T06:00:31.143Z,28.68
2022-07-25T06:03:00.897Z,28.78
2022-07-25T06:05:29.523Z,28.83
2022-07-25T06:07:57.890Z,28.87
2022-07-25T06:10:26.379Z,28.97
2022-07-25T06:12:56.142Z,29.02
2022-07-25T06:15:26.616Z,29.09
2022-07-25T06:17:55.655Z,29.26
2022-07-25T06:20:24.134Z,29.32
2022-07-25T06:22:53.519Z,29.42
2022-07-25T06:25:22.011Z,29.48
2022-07-25T06:27:50.450Z,29.56
2022-07-25T06:30:20.762Z,29.60
2022-07-25T06:32:49.276Z,29.75
2022-07-25T06:35:18.148Z,29.90
2022-07-25T06:37:46.653Z,30.09
2022-07-25T06:40:15.646Z,30.30
2022-07-25T06:42:46.055Z,30.45
2022-07-25T06:45:15.749Z,30.49
2022-07-25T06:47:50.486Z,30.47
2022-07-25T06:50:22.930Z,30.53
2022-07-25T06:52:54.849Z,30.62
2022-07-25T06:55:52.246Z,30.67
2022-07-25T06:58:23.420Z,30.72
2022-07-25T07:01:06.332Z,30.77
2022-07-25T07:03:40.530Z,30.82
2022-07-25T07:06:15.127Z,30.81
2022-07-25T07:08:44.523Z,30.82
2022-07-25T07:11:23.352Z,30.84
2022-07-25T07:13:53.284Z,30.78
2022-07-25T07:16:46.235Z,30.75
2022-07-25T07:19:30.310Z,30.77
2022-07-25T07:21:59.810Z,30.92
2022-07-25T07:24:28.419Z,31.12
2022-07-25T07:27:03.698Z,31.39
2022-07-25T07:32:47.957Z,32.11
2022-07-25T07:35:27.490Z,32.35
2022-07-25T07:37:58.082Z,32.59
2022-07-25T07:40:31.505Z,32.78
2022-07-25T07:43:02.445Z,32.98
2022-07-25T07:48:15.433Z,32.68
2022-07-25T07:50:45.948Z,32.56
2022-07-25T07:53:14.055Z,32.53
2022-07-25T07:55:44.182Z,32.58
2022-07-25T07:58:12.869Z,32.82
2022-07-25T08:00:41.267Z,33.17
2022-07-25T08:03:13.641Z,33.40
2022-07-25T08:05:45.850Z,33.68
2022-07-25T08:08:16.290Z,34.03
2022-07-25T08:10:48.808Z,34.06
2022-07-25T08:13:19.223Z,33.89
2022-07-25T08:15:49.455Z,33.71
2022-07-25T08:18:20.124Z,33.48
2022-07-25T08:20:51.157Z,33.33
2022-07-25T08:23:31.886Z,33.29
2022-07-25T08:26:04.904Z,33.40
2022-07-25T08:28:36.053Z,33.56
2022-07-25T08:31:19.600Z,33.53
2022-07-25T08:33:54.675Z,33.45
2022-07-25T08:36:34.852Z,33.23
2022-07-25T08:39:16.729Z,32.98
2022-07-25T08:41:49.730Z,32.79
2022-07-25T08:44:28.941Z,32.61
2022-07-25T08:47:22.288Z,32.60
2022-07-25T08:56:45.576Z,33.46
2022-07-25T09:00:19.533Z,33.51
2022-07-25T09:03:22.632Z,33.61
2022-07-25T09:06:03.054Z,33.48
2022-07-25T09:12:02.095Z,33.31
2022-07-25T09:14:49.225Z,33.35
2022-07-25T09:17:23.676Z,33.25
2022-07-25T09:23:10.419Z,32.94
2022-07-25T09:26:27.815Z,32.85
2022-07-25T09:33:16.291Z,32.92
2022-07-25T09:41:37.391Z,33.61
2022-07-25T09:44:29.021Z,33.82
2022-07-25T09:47:30.707Z,33.65
2022-07-25T09:50:15.234Z,33.34
2022-07-25T09:53:14.596Z,33.01
2022-07-25T09:55:48.976Z,32.87
2022-07-25T09:58:17.483Z,32.75
2022-07-25T10:00:47.067Z,32.83
2022-07-25T10:04:30.292Z,33.05
2022-07-25T10:10:38.024Z,32.82
2022-07-25T10:19:59.022Z,31.98
2022-07-25T10:22:58.534Z,31.82
2022-07-25T10:25:53.370Z,31.82
2022-07-25T10:30:21.259Z,31.96
2022-07-25T10:34:05.907Z,32.50
2022-07-25T10:38:00.465Z,32.79
2022-07-25T10:44:51.638Z,32.96
2022-07-25T10:47:38.406Z,32.94
2022-07-25T10:54:17.177Z,32.58
2022-07-25T11:00:21.973Z,32.11
2022-07-25T11:03:04.950Z,31.90
2022-07-25T11:05:36.318Z,31.79
2022-07-25T11:11:39.135Z,31.61
2022-07-25T11:14:17.962Z,31.75
2022-07-25T11:17:02.607Z,31.94
2022-07-25T11:20:03.183Z,32.19
2022-07-25T11:22:41.687Z,32.38
2022-07-25T11:28:48.987Z,32.83
2022-07-25T11:31:25.346Z,33.16
2022-07-25T11:34:21.594Z,33.33
2022-07-25T11:36:52.341Z,33.20
2022-07-25T11:40:08.463Z,33.11
2022-07-25T11:50:22.567Z,32.03
2022-07-25T12:23:29.870Z,31.44
2022-07-25T12:30:58.509Z,31.37
2022-07-25T12:33:31.190Z,31.33
2022-07-25T12:36:08.055Z,31.18
2022-07-25T12:43:28.918Z,30.69
2022-07-25T12:46:50.010Z,30.53
2022-07-25T12:49:21.822Z,30.51
2022-07-25T12:52:12.602Z,30.46
2022-07-25T12:54:45.558Z,30.59
2022-07-25T12:57:55.160Z,30.77
2022-07-25T13:00:27.480Z,30.72
2022-07-25T13:02:57.042Z,30.83
2022-07-25T13:05:27.534Z,31.01
2022-07-25T13:07:55.899Z,31.12
2022-07-25T13:10:24.254Z,30.96
2022-07-25T13:12:52.590Z,30.78
2022-07-25T13:15:23.397Z,30.65
2022-07-25T13:17:51.962Z,30.70
2022-07-25T13:20:20.291Z,30.69
2022-07-25T13:22:50.009Z,30.76
2022-07-25T13:25:18.502Z,30.87
2022-07-25T13:27:48.518Z,31.02
2022-07-25T13:30:16.908Z,31.02
2022-07-25T13:32:45.434Z,30.91
2022-07-25T13:35:17.689Z,30.69
2022-07-25T13:37:50.026Z,30.48
2022-07-25T13:40:18.379Z,30.34
2022-07-25T13:42:46.691Z,30.27
2022-07-25T13:45:15.111Z,30.31
2022-07-25T13:47:43.681Z,30.42
2022-07-25T13:50:11.988Z,30.53
2022-07-25T13:52:40.355Z,30.63
2022-07-25T13:55:11.469Z,30.67
2022-07-25T13:57:39.881Z,30.52
2022-07-25T14:00:09.413Z,30.48
2022-07-25T14:02:37.860Z,30.46
2022-07-25T14:05:06.728Z,30.60
2022-07-25T14:07:36.114Z,30.79
2022-07-25T14:10:06.035Z,30.90
2022-07-25T14:12:39.612Z,30.92
2022-07-25T14:15:09.278Z,31.13
2022-07-25T14:17:38.870Z,31.46
2022-07-25T14:20:08.676Z,31.70
2022-07-25T14:22:37.112Z,31.59
2022-07-25T14:25:05.991Z,31.38
2022-07-25T14:27:36.484Z,31.16
2022-07-25T14:30:05.379Z,30.90
2022-07-25T14:32:33.804Z,30.68
2022-07-25T14:35:02.561Z,30.50
2022-07-25T14:37:31.842Z,30.37
2022-07-25T14:40:00.404Z,30.22
2022-07-25T14:42:29.558Z,30.01
2022-07-25T14:44:59.343Z,29.79
2022-07-25T14:47:27.732Z,29.63
2022-07-25T14:49:56.111Z,29.59
2022-07-25T14:52:24.927Z,29.60
2022-07-25T14:54:53.231Z,29.56
2022-07-25T14:57:21.542Z,29.50
2022-07-25T14:59:49.935Z,29.46
2022-07-25T15:02:19.629Z,29.50
2022-07-25T15:04:47.989Z,29.56
2022-07-25T15:07:16.355Z,29.60
2022-07-25T15:09:44.812Z,29.60
2022-07-25T15:12:16.690Z,29.73
2022-07-25T15:14:45.730Z,30.07
2022-07-25T15:17:14.531Z,30.30
2022-07-25T15:19:44.279Z,30.55
2022-07-25T15:22:12.631Z,30.87
2022-07-25T15:25:06.762Z,30.89
2022-07-25T15:27:29.282Z,30.82
2022-07-25T15:29:57.536Z,30.65
2022-07-25T15:32:25.866Z,30.55
2022-07-25T15:34:55.512Z,30.48
2022-07-25T15:37:24.054Z,30.59
2022-07-25T15:39:52.358Z,30.59
2022-07-25T15:42:22.610Z,30.55
2022-07-25T15:45:09.050Z,30.46
2022-07-25T15:47:41.535Z,30.20
2022-07-25T15:50:11.605Z,30.06
2022-07-25T15:52:39.922Z,30.13
2022-07-25T15:55:08.750Z,30.30
2022-07-25T15:57:37.110Z,30.42
2022-07-25T16:00:08.104Z,30.49
2022-07-25T16:02:36.532Z,30.47
2022-07-25T16:05:05.679Z,30.36
2022-07-25T16:07:35.606Z,30.27
2022-07-25T16:10:03.958Z,30.19
2022-07-25T16:12:32.322Z,30.11
2022-07-25T16:15:00.650Z,30.09
2022-07-25T16:17:28.998Z,30.18
2022-07-25T16:19:57.412Z,30.33
2022-07-25T16:22:25.735Z,30.36
2022-07-25T16:24:55.439Z,30.37
2022-07-25T16:27:23.863Z,30.37
2022-07-25T16:29:54.467Z,30.26
2022-07-25T16:32:22.757Z,30.26
2022-07-25T16:34:51.717Z,30.23
2022-07-25T16:37:21.185Z,30.19
2022-07-25T16:39:49.566Z,30.09
2022-07-25T16:42:19.237Z,29.74
2022-07-25T16:44:47.903Z,29.52
2022-07-25T16:47:16.380Z,29.60
2022-07-25T16:49:44.764Z,29.54
2022-07-25T16:52:13.176Z,29.51
2022-07-25T16:54:42.752Z,29.38
2022-07-25T16:57:11.171Z,29.35
2022-07-25T16:59:40.922Z,29.17
2022-07-25T17:02:09.327Z,29.07
2022-07-25T17:04:40.896Z,28.90
2022-07-25T17:07:09.896Z,28.76
2022-07-25T17:09:38.148Z,28.67
2022-07-25T17:12:07.133Z,28.60
2022-07-25T17:14:36.216Z,28.55
2022-07-25T17:17:06.344Z,28.54
2022-07-25T17:19:39.692Z,28.55
2022-07-25T17:22:08.161Z,28.57
2022-07-25T17:24:37.006Z,28.39
2022-07-25T17:27:06.743Z,28.24
2022-07-25T17:29:36.958Z,28.09
2022-07-25T17:32:07.493Z,27.91
2022-07-25T17:34:35.898Z,27.76
2022-07-25T17:37:04.365Z,27.70
2022-07-25T17:39:36.546Z,27.74
2022-07-25T17:42:09.358Z,27.71
2022-07-25T17:44:37.780Z,27.68
2022-07-25T17:47:07.860Z,27.59
2022-07-25T17:49:36.357Z,27.55
2022-07-25T17:52:05.219Z,27.49
2022-07-25T17:54:33.754Z,27.41
2022-07-25T17:57:02.308Z,27.37
2022-07-25T17:59:30.584Z,27.26
2022-07-25T18:01:59.128Z,27.24
2022-07-25T18:04:28.954Z,27.26
2022-07-25T18:06:57.365Z,27.23
2022-07-25T18:09:25.655Z,27.17
2022-07-25T18:11:54.771Z,27.12
2022-07-25T18:14:23.377Z,27.10
2022-07-25T18:16:51.743Z,27.12
2022-07-25T18:19:20.135Z,27.10
2022-07-25T18:21:49.845Z,27.07
2022-07-25T18:24:18.275Z,27.00
2022-07-25T18:26:46.940Z,26.97
2022-07-25T18:29:15.258Z,26.98
2022-07-25T18:31:43.620Z,26.89
2022-07-25T18:34:12.312Z,26.86
2022-07-25T18:36:41.930Z,26.81
2022-07-25T18:39:11.742Z,26.71
2022-07-25T18:41:40.111Z,26.65
2022-07-25T18:44:08.751Z,26.61
2022-07-25T18:46:37.505Z,26.55
2022-07-25T18:49:06.094Z,26.49
2022-07-25T18:51:34.463Z,26.43
2022-07-25T18:54:02.835Z,26.36
2022-07-25T18:56:32.537Z,26.31
2022-07-25T18:59:01.091Z,26.26
2022-07-25T19:01:31.012Z,26.22
2022-07-25T19:03:59.394Z,26.20
2022-07-25T19:06:27.866Z,26.23
2022-07-25T19:08:56.193Z,26.23
2022-07-25T19:11:24.531Z,26.23
2022-07-25T19:13:54.222Z,26.16
2022-07-25T19:16:22.566Z,26.13
2022-07-25T19:18:52.167Z,26.11
2022-07-25T19:21:20.511Z,26.12
2022-07-25T19:23:51.231Z,26.09
2022-07-25T19:26:20.399Z,26.08
2022-07-25T19:28:50.214Z,26.05
2022-07-25T19:31:20.178Z,26.07
2022-07-25T19:33:49.425Z,26.06
2022-07-25T19:36:17.727Z,26.06
2022-07-25T19:38:46.080Z,26.15
2022-07-25T19:41:14.644Z,26.12
2022-07-25T19:43:43.021Z,26.16
2022-07-25T19:46:11.466Z,26.05
2022-07-25T19:48:41.283Z,26.03
2022-07-25T19:51:10.053Z,25.97
2022-07-25T19:53:38.538Z,25.96
2022-07-25T19:56:08.532Z,25.95
2022-07-25T19:58:39.117Z,25.90
2022-07-25T20:01:11.898Z,25.84
2022-07-25T20:03:41.947Z,25.83
2022-07-25T20:06:10.693Z,25.82
2022-07-25T20:08:40.276Z,25.77
2022-07-25T20:11:08.596Z,25.71
2022-07-25T20:13:37.353Z,25.66
2022-07-25T20:16:06.712Z,25.66
2022-07-25T20:18:35.144Z,25.62
2022-07-25T20:21:05.836Z,25.62
2022-07-25T20:23:34.334Z,25.63
2022-07-25T20:26:03.206Z,25.64
2022-07-25T20:28:32.182Z,25.65
2022-07-25T20:31:01.885Z,25.67
2022-07-25T20:33:30.647Z,25.67
2022-07-25T20:35:59.894Z,25.64
2022-07-25T20:38:31.176Z,25.65
2022-07-25T20:40:59.950Z,25.66
2022-07-25T20:43:28.711Z,25.64
2022-07-25T20:45:57.632Z,25.65
2022-07-25T20:48:26.364Z,25.69
2022-07-25T20:50:54.761Z,25.65
2022-07-25T20:53:23.940Z,25.69
2022-07-25T20:55:54.168Z,25.69
2022-07-25T20:58:22.835Z,25.66
2022-07-25T21:00:51.283Z,25.65
2022-07-25T21:03:19.566Z,25.66
2022-07-25T21:05:47.894Z,25.71
2022-07-25T21:08:16.671Z,25.64
2022-07-25T21:10:45.536Z,25.66
2022-07-25T21:13:16.296Z,25.60
2022-07-25T21:15:46.997Z,25.59
2022-07-25T21:18:15.516Z,25.57
2022-07-25T21:20:46.020Z,25.57
2022-07-25T21:23:15.357Z,25.54
2022-07-25T21:25:43.823Z,25.56
2022-07-25T21:28:12.205Z,25.52
2022-07-25T21:30:43.173Z,25.49
2022-07-25T21:33:14.789Z,25.50
2022-07-25T21:35:50.458Z,25.47
2022-07-25T21:38:26.373Z,25.47
2022-07-25T21:40:56.302Z,25.48
2022-07-25T21:43:25.229Z,25.49
2022-07-25T21:45:55.019Z,25.50
2022-07-25T21:48:44.072Z,25.49
2022-07-25T21:51:18.755Z,25.39
2022-07-25T21:53:49.065Z,25.34
2022-07-25T21:56:17.884Z,25.29
2022-07-25T21:58:46.561Z,25.22
2022-07-25T22:01:16.408Z,25.17
2022-07-25T22:03:45.074Z,25.12
2022-07-25T22:06:13.597Z,25.08
2022-07-25T22:08:41.919Z,25.03
2022-07-25T22:11:16.126Z,24.98
2022-07-25T22:13:58.723Z,24.87
2022-07-25T22:16:28.773Z,24.83
2022-07-25T22:18:57.515Z,24.73
2022-07-25T22:21:25.884Z,24.71
2022-07-25T22:23:54.262Z,24.65
2022-07-25T22:26:22.642Z,24.64
2022-07-25T22:28:51.257Z,24.58
2022-07-25T22:31:20.079Z,24.55
2022-07-25T22:33:49.927Z,24.60
2022-07-25T22:36:19.099Z,24.62
2022-07-25T22:38:47.716Z,24.63
2022-07-25T22:41:16.312Z,24.61
2022-07-25T22:43:57.925Z,24.58
2022-07-25T22:46:29.035Z,24.57
2022-07-25T22:48:59.867Z,24.50
2022-07-25T22:51:29.204Z,24.46
2022-07-25T22:53:57.955Z,24.45
2022-07-25T22:56:27.015Z,24.45
2022-07-25T22:58:56.558Z,24.41
2022-07-25T23:01:25.449Z,24.39
2022-07-25T23:03:53.883Z,24.41
2022-07-25T23:06:23.730Z,24.40
2022-07-25T23:08:52.983Z,24.41
2022-07-25T23:11:21.376Z,24.44
2022-07-25T23:13:49.754Z,24.49
2022-07-25T23:16:18.154Z,24.50
2022-07-25T23:18:46.765Z,24.51
2022-07-25T23:21:15.243Z,24.55
2022-07-25T23:23:45.096Z,24.57
2022-07-25T23:26:13.533Z,24.57
2022-07-25T23:28:41.944Z,24.59
2022-07-25T23:31:10.442Z,24.58
2022-07-25T23:33:39.063Z,24.58
2022-07-25T23:36:07.811Z,24.62
2022-07-25T23:38:36.099Z,24.64
2022-07-25T23:41:06.194Z,24.62
2022-07-25T23:43:57.728Z,24.65
2022-07-25T23:46:25.784Z,24.69
2022-07-25T23:48:58.313Z,24.65
2022-07-25T23:51:27.014Z,24.68
2022-07-25T23:53:55.456Z,24.65
2022-07-25T23:56:25.317Z,24.64
2022-07-25T23:58:53.668Z,24.62
